Kitty Hawk, NC (27949)

3:49 PM EST on November 26, 2014 (GMT -0500)
Martin's Point | Change Station
CLOSE
Current Station
Personal Weather Station
Location: Kitty Hawk, NC
Elevation: 0 ft
Nearby Weather Stations

Elev 0 ft 36.11 °N, 75.75 °W | Updated 12 minutes ago

Rain
Rain
48.2 °F
Feels Like 45 °F
N
8.0
Wind Variable Wind from North
Gusts 18.0 mph

Today
High -- | Low -- °F
--% Chance of Precip.
Yesterday
High -- | Low -- °F
Precip. -- in
6:50 AM 4:49 PM
Waxing Crescent, 22% visible
Pressure 29.79 in
Visibility 7.0 miles
Clouds Overcast 1100 ft
Windchill 45 °F
Dew Point 46 °F
Humidity 93%
Rainfall 0.00 in
Snow Depth Not available.
UV 0 out of 12
Pollen .10 out of 12
Air Quality Not available.
Flu Activity Not available.
METAR KFFA 262035Z AUTO 30011G17KT 7SM -DZ OVC011 09/08 A2979 RMK AO2 P0001 T00870083

More Conditions Fewer Conditions

Pressure 29.79 in
Visibility 7.0 miles
Clouds Overcast 1100 ft
Windchill 45 °F
Dew Point 46 °F
Humidity 93%
Rainfall 0.00 in
Snow Depth Not available.
UV 0 out of 12
Pollen .10 out of 12
Air Quality Not available.
Flu Activity Not available.
METAR KFFA 262035Z AUTO 30011G17KT 7SM -DZ OVC011 09/08 A2979 RMK AO2 P0001 T00870083

More Conditions Fewer Conditions

10-Day Weather Forecast

Almanac

Astronomy

Nov. 26, 2014 Rise Set
Actual Time
Civil Twilight
Nautical Twilight
Astronomical Twilight
Moon
Length of Visible Light
Length of Day
Tomorrow will be .
, % of the Moon is Illuminated

Today's Extremes

State Highs State Lows

Community

WunderPhotos

Upload Photos

1,773,860 photos uploaded!

WunderBlogs® & News

Nearby

Air Quality

  Air Quality AQ Index Pollutant
Not available.

Snow Depth

Station Depth Elevation

Earthquake Activity

City Distance Mag. Time & Date
Minimum magnitude displayed is 2.5.

Coastal Water Temperatures

Place Temperature

Nearby Weather Stations